createdAt,value
2018-03-21T00:02:19.071Z,0.90
2018-03-21T00:04:47.337Z,0.77
2018-03-21T00:07:15.604Z,0.73
2018-03-21T00:09:43.893Z,0.77
2018-03-21T00:12:12.172Z,0.93
2018-03-21T00:14:40.445Z,0.60
2018-03-21T00:17:08.725Z,0.70
2018-03-21T00:19:37.003Z,1.07
2018-03-21T00:22:05.257Z,0.67
2018-03-21T00:24:33.529Z,0.87
2018-03-21T00:27:01.794Z,0.60
2018-03-21T00:29:30.049Z,0.60
2018-03-21T00:31:59.096Z,0.43
2018-03-21T00:34:27.371Z,0.80
2018-03-21T00:36:55.663Z,0.80
2018-03-21T00:39:23.996Z,0.57
2018-03-21T00:41:52.275Z,1.27
2018-03-21T00:44:20.557Z,0.73
2018-03-21T00:46:48.824Z,0.70
2018-03-21T00:49:17.148Z,0.93
2018-03-21T00:51:45.408Z,0.83
2018-03-21T00:54:13.676Z,0.90
2018-03-21T00:56:41.988Z,0.83
2018-03-21T00:59:10.276Z,0.97
2018-03-21T01:01:38.543Z,0.93
2018-03-21T01:04:06.852Z,0.70
2018-03-21T01:06:35.182Z,0.70
2018-03-21T01:09:03.452Z,1.10
2018-03-21T01:11:31.732Z,0.87
2018-03-21T01:14:00.012Z,1.20
2018-03-21T01:16:28.275Z,0.70
2018-03-21T01:18:56.563Z,0.73
2018-03-21T01:21:24.853Z,0.57
2018-03-21T01:23:53.132Z,1.00
2018-03-21T01:26:21.423Z,0.83
2018-03-21T01:28:50.457Z,0.90
2018-03-21T01:31:18.724Z,1.27
2018-03-21T01:33:47.023Z,1.03
2018-03-21T01:36:15.294Z,1.30
2018-03-21T01:38:43.585Z,0.70
2018-03-21T01:41:12.985Z,1.17
2018-03-21T01:43:41.276Z,0.93
2018-03-21T01:46:09.566Z,1.10
2018-03-21T01:48:37.828Z,1.10
2018-03-21T01:51:06.108Z,1.80
2018-03-21T01:53:34.376Z,1.55
2018-03-21T01:56:02.656Z,1.73
2018-03-21T01:58:30.931Z,2.17
2018-03-21T02:00:59.204Z,1.50
2018-03-21T02:03:27.471Z,1.73
2018-03-21T02:05:55.728Z,1.40
2018-03-21T02:08:24.000Z,1.40
2018-03-21T02:10:52.285Z,1.53
2018-03-21T02:13:20.560Z,1.50
2018-03-21T02:15:48.829Z,1.43
2018-03-21T02:18:17.097Z,1.70
2018-03-21T02:20:45.352Z,1.30
2018-03-21T02:23:14.379Z,1.63
2018-03-21T02:25:42.752Z,1.33
2018-03-21T02:28:11.028Z,2.23
2018-03-21T02:30:39.335Z,1.53
2018-03-21T02:33:07.588Z,1.33
2018-03-21T02:35:35.845Z,1.47
2018-03-21T02:38:04.131Z,1.80
2018-03-21T02:40:32.424Z,2.00
2018-03-21T02:43:00.689Z,1.50
2018-03-21T02:45:28.976Z,1.17
2018-03-21T02:47:57.256Z,1.70
2018-03-21T02:50:25.530Z,1.50
2018-03-21T02:52:53.813Z,1.87
2018-03-21T02:55:22.081Z,1.33
2018-03-21T02:57:50.364Z,1.33
2018-03-21T03:00:18.623Z,1.30
2018-03-21T03:02:46.899Z,1.87
2018-03-21T03:05:15.158Z,1.40
2018-03-21T03:07:43.432Z,1.87
2018-03-21T03:10:11.711Z,2.33
2018-03-21T03:12:40.112Z,1.73
2018-03-21T03:15:08.462Z,1.40
2018-03-21T03:17:36.735Z,1.33
2018-03-21T03:20:05.012Z,1.93
2018-03-21T03:22:33.287Z,1.55
2018-03-21T03:25:01.580Z,1.43
2018-03-21T03:27:29.956Z,1.17
2018-03-21T03:29:58.244Z,1.63
2018-03-21T03:32:26.500Z,1.40
2018-03-21T03:34:54.772Z,1.57
2018-03-21T03:37:23.059Z,1.27
2018-03-21T03:39:51.323Z,1.20
2018-03-21T03:42:19.584Z,1.60
2018-03-21T03:44:48.636Z,1.40
2018-03-21T03:47:16.915Z,1.60
2018-03-21T03:49:45.183Z,1.37
2018-03-21T03:52:13.483Z,1.20
2018-03-21T03:54:42.520Z,1.07
2018-03-21T03:57:10.812Z,1.33
2018-03-21T03:59:39.085Z,0.93
2018-03-21T04:02:07.343Z,1.08
2018-03-21T04:04:35.680Z,0.90
2018-03-21T04:07:03.951Z,1.27
2018-03-21T04:09:32.207Z,0.87
2018-03-21T04:12:00.499Z,1.00
2018-03-21T04:14:28.854Z,1.13
2018-03-21T04:16:57.137Z,1.40
2018-03-21T04:19:25.403Z,1.00
2018-03-21T04:21:53.689Z,1.30
2018-03-21T04:24:21.960Z,1.83
2018-03-21T04:26:50.223Z,1.13
2018-03-21T04:29:18.664Z,1.17
2018-03-21T04:31:46.933Z,1.10
2018-03-21T04:34:15.214Z,1.33
2018-03-21T04:36:43.474Z,1.30
2018-03-21T04:39:11.736Z,1.10
2018-03-21T04:41:40.029Z,1.30
2018-03-21T04:44:08.294Z,1.37
2018-03-21T04:46:36.564Z,1.17
2018-03-21T04:49:04.839Z,1.80
2018-03-21T04:51:33.113Z,1.70
2018-03-21T04:54:01.385Z,1.83
2018-03-21T04:56:29.651Z,3.17
2018-03-21T04:58:57.913Z,2.47
2018-03-21T05:01:26.232Z,3.27
2018-03-21T05:03:54.509Z,3.70
2018-03-21T05:06:22.798Z,4.57
2018-03-21T05:08:51.080Z,4.60
2018-03-21T05:11:20.943Z,4.47
2018-03-21T05:13:49.231Z,3.80
2018-03-21T05:16:17.518Z,3.97
2018-03-21T05:18:45.840Z,4.17
2018-03-21T05:21:14.875Z,3.60
2018-03-21T05:23:43.131Z,3.20
2018-03-21T05:26:11.406Z,3.97
2018-03-21T05:28:39.692Z,3.93
2018-03-21T05:31:07.972Z,3.07
2018-03-21T05:33:36.244Z,3.00
2018-03-21T05:36:04.499Z,3.67
2018-03-21T05:38:32.924Z,3.40
2018-03-21T05:41:01.211Z,3.90
2018-03-21T05:43:29.481Z,3.00
2018-03-21T05:45:57.754Z,3.17
2018-03-21T05:48:26.082Z,3.30
2018-03-21T05:50:54.360Z,3.77
2018-03-21T05:53:22.668Z,3.63
2018-03-21T05:55:51.791Z,3.23
2018-03-21T05:58:20.068Z,3.43
2018-03-21T06:00:48.332Z,2.47
2018-03-21T06:03:16.597Z,2.63
2018-03-21T06:05:44.887Z,2.00
2018-03-21T06:08:13.189Z,2.27
2018-03-21T06:10:42.228Z,1.97
2018-03-21T06:13:10.545Z,1.93
2018-03-21T06:15:38.800Z,3.20
2018-03-21T06:18:07.132Z,2.53
2018-03-21T06:20:36.117Z,3.53
2018-03-21T06:23:05.161Z,2.27
2018-03-21T06:25:33.472Z,2.37
2018-03-21T06:28:01.728Z,3.40
2018-03-21T06:30:30.001Z,2.80
2018-03-21T06:32:58.283Z,2.73
2018-03-21T06:35:26.536Z,2.30
2018-03-21T06:37:54.800Z,2.73
2018-03-21T06:40:23.084Z,2.60
2018-03-21T06:42:51.357Z,4.30
2018-03-21T06:45:19.623Z,4.33
2018-03-21T06:47:47.932Z,3.50
2018-03-21T06:50:16.215Z,5.20
2018-03-21T06:52:44.472Z,4.10
2018-03-21T06:55:12.804Z,4.80
2018-03-21T06:57:41.101Z,4.53
2018-03-21T07:00:09.360Z,3.57
2018-03-21T07:02:38.405Z,2.83
2018-03-21T07:05:06.672Z,2.20
2018-03-21T07:07:34.952Z,2.50
2018-03-21T07:10:03.219Z,2.20
2018-03-21T07:12:31.487Z,1.80
2018-03-21T07:15:17.528Z,2.07
2018-03-21T07:17:45.796Z,2.40
2018-03-21T07:20:14.071Z,2.00
2018-03-21T07:22:42.344Z,2.10
2018-03-21T07:25:10.612Z,2.17
2018-03-21T07:27:38.868Z,2.37
2018-03-21T07:30:07.148Z,3.00
2018-03-21T07:32:35.397Z,2.53
2018-03-21T07:35:03.643Z,2.77
2018-03-21T07:37:32.688Z,3.27
2018-03-21T07:40:00.940Z,2.20
2018-03-21T07:42:29.189Z,2.47
2018-03-21T07:44:57.465Z,1.90
2018-03-21T07:47:26.489Z,2.50
2018-03-21T07:49:54.738Z,1.90
2018-03-21T07:52:23.830Z,2.47
2018-03-21T07:54:52.856Z,2.10
2018-03-21T07:57:21.097Z,2.20
2018-03-21T07:59:50.131Z,2.20
2018-03-21T08:02:18.437Z,2.17
2018-03-21T08:04:46.654Z,2.30
2018-03-21T08:07:15.696Z,1.97
2018-03-21T08:09:43.968Z,1.70
2018-03-21T08:12:12.239Z,1.83
2018-03-21T08:14:40.502Z,2.20
2018-03-21T08:17:08.747Z,2.67
2018-03-21T08:19:37.779Z,2.60
2018-03-21T08:22:06.052Z,2.30
2018-03-21T08:24:34.305Z,2.20
2018-03-21T08:27:02.585Z,2.17
2018-03-21T08:29:31.595Z,2.20
2018-03-21T08:31:59.859Z,2.13
2018-03-21T08:34:28.162Z,2.13
2018-03-21T08:36:56.390Z,2.03
2018-03-21T08:39:25.435Z,2.03
2018-03-21T08:41:53.696Z,2.30
2018-03-21T08:44:21.975Z,2.40
2018-03-21T08:46:50.240Z,2.20
2018-03-21T08:49:18.486Z,2.10
2018-03-21T08:51:47.527Z,1.90
2018-03-21T08:54:15.806Z,2.17
2018-03-21T08:56:44.060Z,1.80
2018-03-21T08:59:12.343Z,2.33
2018-03-21T09:01:40.616Z,2.00
2018-03-21T09:04:08.869Z,1.67
2018-03-21T09:06:37.910Z,1.97
2018-03-21T09:09:06.161Z,1.60
2018-03-21T09:11:34.416Z,1.50
2018-03-21T09:14:02.700Z,4.10
2018-03-21T09:16:30.952Z,1.50
2018-03-21T09:18:59.991Z,1.23
2018-03-21T09:21:28.251Z,1.40
2018-03-21T09:23:56.701Z,1.23
2018-03-21T09:26:24.945Z,1.40
2018-03-21T09:28:53.238Z,2.00
2018-03-21T09:31:22.276Z,5.60
2018-03-21T09:33:50.523Z,1.80
2018-03-21T09:36:19.560Z,1.20
2018-03-21T09:38:47.824Z,1.57
2018-03-21T09:41:16.084Z,1.07
2018-03-21T09:43:45.171Z,1.10
2018-03-21T09:46:14.189Z,1.13
2018-03-21T09:48:42.452Z,1.30
2018-03-21T09:51:10.720Z,1.63
2018-03-21T09:53:39.748Z,0.90
2018-03-21T09:56:08.010Z,1.30
2018-03-21T09:58:36.285Z,1.10
2018-03-21T10:01:04.608Z,1.30
2018-03-21T10:03:32.806Z,1.83
2018-03-21T10:06:01.868Z,5.00
2018-03-21T10:08:30.120Z,1.80
2018-03-21T10:10:58.382Z,1.10
2018-03-21T10:13:26.656Z,1.27
2018-03-21T10:15:54.903Z,1.40
2018-03-21T10:18:23.948Z,1.17
2018-03-21T10:20:52.192Z,1.57
2018-03-21T10:23:20.467Z,1.63
2018-03-21T10:25:49.503Z,1.40
2018-03-21T10:28:17.760Z,1.30
2018-03-21T10:30:46.020Z,1.60
2018-03-21T10:33:14.347Z,1.50
2018-03-21T10:35:42.600Z,1.17
2018-03-21T10:38:10.886Z,0.77
2018-03-21T10:40:39.141Z,0.77
2018-03-21T10:43:07.401Z,1.20
2018-03-21T10:45:35.712Z,0.73
2018-03-21T10:48:03.967Z,1.50
2018-03-21T10:50:32.236Z,0.90
2018-03-21T10:53:00.520Z,0.60
2018-03-21T10:55:28.779Z,0.60
2018-03-21T10:57:57.053Z,0.57
2018-03-21T11:00:26.085Z,0.80
2018-03-21T11:02:59.812Z,0.63
2018-03-21T11:05:28.104Z,0.70
2018-03-21T11:07:57.121Z,0.70
2018-03-21T11:10:25.375Z,0.90
2018-03-21T11:12:54.425Z,0.73
2018-03-21T11:15:22.673Z,0.63
2018-03-21T11:17:50.998Z,0.90
2018-03-21T11:20:20.104Z,0.93
2018-03-21T11:22:49.242Z,1.50
2018-03-21T11:25:17.672Z,0.60
2018-03-21T11:27:45.988Z,3.10
2018-03-21T11:30:14.334Z,0.70
2018-03-21T11:32:43.474Z,0.73
2018-03-21T11:35:11.820Z,0.60
2018-03-21T11:37:41.014Z,0.67
2018-03-21T11:40:09.320Z,0.70
2018-03-21T11:42:37.616Z,0.70
2018-03-21T11:45:05.901Z,0.63
2018-03-21T11:47:34.168Z,0.60
2018-03-21T11:50:02.432Z,0.60
2018-03-21T11:52:30.695Z,0.60
2018-03-21T11:54:58.962Z,0.83
2018-03-21T11:57:27.980Z,0.80
2018-03-21T11:59:56.226Z,0.73
2018-03-21T12:02:25.266Z,0.80
2018-03-21T12:04:53.516Z,0.60
2018-03-21T12:07:21.783Z,0.70
2018-03-21T12:09:50.040Z,0.60
2018-03-21T12:12:18.311Z,0.50
2018-03-21T12:14:46.609Z,0.50
2018-03-21T12:17:15.724Z,0.60
2018-03-21T12:19:44.001Z,0.60
2018-03-21T12:22:12.257Z,0.73
2018-03-21T12:24:41.295Z,0.40
2018-03-21T12:27:09.568Z,0.50
2018-03-21T12:29:37.845Z,0.50
2018-03-21T12:32:06.121Z,0.40
2018-03-21T12:34:34.395Z,0.50
2018-03-21T12:37:02.652Z,0.60
2018-03-21T12:39:30.942Z,0.70
2018-03-21T12:41:59.204Z,0.67
2018-03-21T12:44:27.529Z,0.90
2018-03-21T12:46:55.749Z,0.50
2018-03-21T12:49:24.001Z,0.80
2018-03-21T12:51:53.028Z,0.50
2018-03-21T12:54:21.300Z,0.63
2018-03-21T12:56:49.564Z,0.73
2018-03-21T12:59:17.821Z,0.50
2018-03-21T13:01:46.863Z,0.63
2018-03-21T13:04:15.120Z,0.60
2018-03-21T13:06:43.406Z,0.60
2018-03-21T13:09:11.716Z,0.70
2018-03-21T13:11:39.983Z,0.57
2018-03-21T13:14:08.255Z,0.80
2018-03-21T13:16:36.606Z,0.80
2018-03-21T13:19:04.870Z,1.30
2018-03-21T13:21:33.141Z,0.90
2018-03-21T13:24:01.432Z,0.80
2018-03-21T13:26:29.724Z,0.70
2018-03-21T13:28:57.992Z,0.90
2018-03-21T13:31:26.248Z,0.83
2018-03-21T13:33:54.529Z,0.80
2018-03-21T13:36:22.844Z,0.80
2018-03-21T13:38:51.115Z,0.70
2018-03-21T13:41:19.400Z,0.60
2018-03-21T13:43:47.659Z,0.90
2018-03-21T13:46:15.928Z,0.97
2018-03-21T13:48:44.200Z,0.70
2018-03-21T13:51:12.462Z,0.80
2018-03-21T13:53:40.722Z,0.90
2018-03-21T13:56:09.752Z,0.90
2018-03-21T13:58:38.008Z,0.90
2018-03-21T14:01:06.278Z,1.23
2018-03-21T14:03:34.571Z,0.80
2018-03-21T14:06:02.832Z,0.80
2018-03-21T14:08:31.140Z,0.80
2018-03-21T14:10:59.421Z,1.00
2018-03-21T14:13:27.703Z,0.90
2018-03-21T14:15:55.957Z,0.90
2018-03-21T14:18:24.232Z,0.83
2018-03-21T14:20:52.744Z,4.27
2018-03-21T14:23:21.163Z,1.75
2018-03-21T14:25:50.199Z,0.60
2018-03-21T14:28:18.456Z,0.60
2018-03-21T14:30:46.830Z,0.60
2018-03-21T14:33:15.112Z,0.63
2018-03-21T14:35:43.393Z,0.73
2018-03-21T14:38:11.656Z,0.80
2018-03-21T14:40:39.920Z,1.00
2018-03-21T14:43:08.968Z,1.20
2018-03-21T14:45:37.221Z,0.73
2018-03-21T14:48:05.486Z,0.90
2018-03-21T14:50:33.768Z,0.83
2018-03-21T14:53:02.029Z,0.67
2018-03-21T14:55:30.305Z,0.73
2018-03-21T14:57:58.570Z,1.20
2018-03-21T15:00:27.590Z,1.13
2018-03-21T15:02:55.895Z,0.80
2018-03-21T15:05:24.165Z,1.00
2018-03-21T15:07:52.431Z,0.50
2018-03-21T15:10:20.671Z,0.77
2018-03-21T15:12:48.958Z,0.90
2018-03-21T15:15:17.200Z,0.80
2018-03-21T15:17:46.223Z,0.90
2018-03-21T15:20:14.499Z,1.00
2018-03-21T15:22:42.772Z,0.70
2018-03-21T15:25:11.030Z,0.80
2018-03-21T15:27:40.072Z,1.00
2018-03-21T15:30:08.333Z,0.40
2018-03-21T15:32:36.606Z,1.23
2018-03-21T15:35:04.884Z,1.43
2018-03-21T15:37:33.156Z,2.00
2018-03-21T15:40:01.426Z,2.03
2018-03-21T15:42:29.736Z,2.00
2018-03-21T15:44:58.035Z,3.10
2018-03-21T15:47:26.284Z,3.50
2018-03-21T15:49:54.543Z,3.67
2018-03-21T15:52:22.797Z,4.30
2018-03-21T15:54:51.146Z,4.50
2018-03-21T15:57:19.423Z,4.60
2018-03-21T15:59:47.680Z,4.60
2018-03-21T16:02:16.021Z,5.40
2018-03-21T16:04:44.298Z,5.60
2018-03-21T16:07:12.603Z,5.87
2018-03-21T16:09:40.936Z,5.77
2018-03-21T16:12:09.407Z,6.03
2018-03-21T16:14:38.424Z,5.70
2018-03-21T16:17:06.679Z,5.97
2018-03-21T16:19:35.741Z,6.00
2018-03-21T16:22:04.008Z,5.63
2018-03-21T16:24:32.272Z,5.10
2018-03-21T16:27:00.552Z,4.80
2018-03-21T16:29:28.819Z,4.70
2018-03-21T16:31:57.182Z,5.20
2018-03-21T16:34:25.475Z,6.43
2018-03-21T16:36:53.725Z,5.67
2018-03-21T16:39:22.044Z,5.33
2018-03-21T16:41:50.310Z,6.10
2018-03-21T16:44:18.581Z,5.50
2018-03-21T16:46:46.836Z,5.80
2018-03-21T16:49:15.118Z,5.43
2018-03-21T16:51:43.413Z,5.20
2018-03-21T16:54:11.705Z,6.37
2018-03-21T16:56:40.131Z,6.17
2018-03-21T16:59:08.512Z,6.70
2018-03-21T17:01:36.790Z,5.83
2018-03-21T17:04:05.179Z,5.70
2018-03-21T17:06:33.499Z,5.60
2018-03-21T17:09:01.882Z,6.27
2018-03-21T17:11:30.405Z,5.17
2018-03-21T17:13:58.796Z,5.30
2018-03-21T17:16:27.097Z,6.00
2018-03-21T17:18:55.385Z,5.87
2018-03-21T17:21:23.929Z,6.03
2018-03-21T17:23:52.299Z,7.57
2018-03-21T17:26:20.593Z,6.90
2018-03-21T17:28:49.270Z,5.87
2018-03-21T17:31:18.203Z,6.30
2018-03-21T17:33:47.257Z,6.00
2018-03-21T17:36:16.602Z,5.53
2018-03-21T17:38:44.926Z,6.40
2018-03-21T17:41:13.274Z,5.70
2018-03-21T17:43:42.350Z,5.30
2018-03-21T17:46:10.834Z,5.67
2018-03-21T17:48:40.504Z,5.95
2018-03-21T17:51:09.566Z,5.80
2018-03-21T17:53:38.892Z,5.80
2018-03-21T17:56:08.851Z,5.43
2018-03-21T17:58:38.978Z,5.33
2018-03-21T18:01:08.723Z,7.27
2018-03-21T18:03:38.456Z,7.20
2018-03-21T18:06:09.332Z,7.53
2018-03-21T18:08:42.929Z,5.83
2018-03-21T18:11:12.860Z,6.00
2018-03-21T18:13:42.649Z,4.90
2018-03-21T18:16:12.842Z,6.00
2018-03-21T18:18:42.775Z,7.27
2018-03-21T18:21:13.165Z,6.33
2018-03-21T18:23:43.908Z,5.80
2018-03-21T18:26:13.818Z,5.80
2018-03-21T18:28:44.666Z,6.17
2018-03-21T18:31:15.560Z,7.00
2018-03-21T18:33:45.435Z,7.43
2018-03-21T18:36:16.274Z,7.07
2018-03-21T18:38:46.086Z,8.97
2018-03-21T18:41:16.002Z,6.40
2018-03-21T18:43:45.930Z,7.23
2018-03-21T18:46:16.121Z,7.10
2018-03-21T18:48:45.972Z,5.47
2018-03-21T18:51:15.782Z,6.20
2018-03-21T18:53:45.588Z,6.10
2018-03-21T18:56:15.697Z,6.20
2018-03-21T18:58:45.708Z,6.27
2018-03-21T19:01:15.464Z,6.53
2018-03-21T19:03:45.714Z,7.97
2018-03-21T19:06:15.908Z,7.10
2018-03-21T19:08:45.192Z,6.83
2018-03-21T19:11:14.565Z,6.93
2018-03-21T19:13:44.018Z,7.80
2018-03-21T19:16:13.468Z,7.27
2018-03-21T19:18:43.808Z,9.13
2018-03-21T19:21:13.279Z,7.60
2018-03-21T19:23:44.131Z,8.87
2018-03-21T19:26:13.797Z,8.97
2018-03-21T19:28:44.045Z,9.70
2018-03-21T19:31:14.145Z,8.10
2018-03-21T19:33:44.318Z,8.10
2018-03-21T19:36:14.072Z,8.00
2018-03-21T19:38:45.533Z,8.83
2018-03-21T19:41:16.224Z,11.27
2018-03-21T19:43:46.221Z,7.83
2018-03-21T19:46:16.374Z,8.00
2018-03-21T19:48:46.352Z,8.67
2018-03-21T19:51:16.440Z,8.37
2018-03-21T19:53:47.215Z,7.73
2018-03-21T19:56:17.330Z,9.13
2018-03-21T19:58:47.616Z,9.07
2018-03-21T20:01:18.463Z,9.43
2018-03-21T20:03:48.384Z,8.73
2018-03-21T20:06:18.432Z,8.60
2018-03-21T20:08:48.430Z,9.00
2018-03-21T20:11:18.327Z,7.80
2018-03-21T20:13:48.227Z,8.50
2018-03-21T20:16:19.057Z,8.03
2018-03-21T20:18:49.828Z,8.90
2018-03-21T20:21:19.491Z,8.20
2018-03-21T20:23:49.715Z,8.63
2018-03-21T20:26:20.211Z,8.90
2018-03-21T20:28:49.579Z,9.30
2018-03-21T20:31:20.175Z,9.20
2018-03-21T20:33:51.777Z,9.47
2018-03-21T20:36:21.696Z,8.33
2018-03-21T20:38:51.703Z,8.37
2018-03-21T20:41:21.794Z,8.70
2018-03-21T20:43:52.654Z,9.80
2018-03-21T20:46:22.535Z,9.17
2018-03-21T20:48:53.890Z,8.23
2018-03-21T20:51:24.150Z,8.40
2018-03-21T20:53:54.191Z,8.33
2018-03-21T20:56:24.829Z,9.23
2018-03-21T20:58:54.852Z,8.90
2018-03-21T21:01:24.690Z,9.97
2018-03-21T21:03:55.546Z,8.97
2018-03-21T21:06:25.446Z,8.60
2018-03-21T21:08:56.340Z,8.40
2018-03-21T21:11:26.208Z,8.27
2018-03-21T21:13:56.104Z,8.90
2018-03-21T21:16:26.776Z,7.53
2018-03-21T21:18:57.463Z,8.37
2018-03-21T21:21:27.550Z,8.83
2018-03-21T21:23:58.012Z,7.80
2018-03-21T21:26:28.692Z,8.80
2018-03-21T21:28:58.995Z,8.40
2018-03-21T21:31:29.636Z,9.47
2018-03-21T21:33:59.677Z,8.27
2018-03-21T21:36:29.490Z,9.73
2018-03-21T21:38:59.552Z,8.97
2018-03-21T21:41:30.080Z,8.23
2018-03-21T21:43:59.894Z,8.63
2018-03-21T21:46:30.590Z,8.70
2018-03-21T21:49:00.580Z,9.00
2018-03-21T21:51:29.972Z,9.97
2018-03-21T21:54:00.064Z,10.17
2018-03-21T21:56:30.681Z,7.80
2018-03-21T21:59:00.552Z,8.83
2018-03-21T22:01:31.862Z,10.00
2018-03-21T22:04:02.714Z,8.88
2018-03-21T22:06:32.219Z,11.17
2018-03-21T22:09:03.010Z,8.60
2018-03-21T22:11:32.784Z,9.60
2018-03-21T22:14:02.121Z,9.90
2018-03-21T22:16:31.555Z,9.53
2018-03-21T22:18:59.920Z,9.70
2018-03-21T22:21:28.339Z,9.60
2018-03-21T22:23:56.616Z,9.30
2018-03-21T22:26:24.873Z,9.07
2018-03-21T22:28:53.164Z,8.85
2018-03-21T22:31:21.408Z,9.93
2018-03-21T22:33:49.663Z,8.80
2018-03-21T22:36:18.702Z,9.00
2018-03-21T22:38:46.971Z,9.60
2018-03-21T22:41:15.212Z,10.00
2018-03-21T22:43:44.251Z,9.37
2018-03-21T22:46:12.499Z,9.70
2018-03-21T22:48:40.759Z,10.30
2018-03-21T22:51:09.791Z,9.00
2018-03-21T22:53:38.051Z,9.47
2018-03-21T22:56:06.304Z,9.37
2018-03-21T22:58:35.348Z,11.07
2018-03-21T23:01:03.661Z,9.37
2018-03-21T23:03:31.924Z,10.77
2018-03-21T23:06:00.236Z,10.00
2018-03-21T23:08:29.257Z,10.60
2018-03-21T23:10:57.511Z,10.10
2018-03-21T23:13:25.800Z,10.95
2018-03-21T23:15:54.072Z,9.80
2018-03-21T23:18:23.088Z,10.70
2018-03-21T23:20:51.354Z,11.43
2018-03-21T23:23:19.611Z,9.73
2018-03-21T23:25:47.940Z,10.40
2018-03-21T23:28:16.277Z,12.17
2018-03-21T23:30:44.540Z,10.63
2018-03-21T23:33:12.791Z,9.77
2018-03-21T23:35:41.816Z,11.00
2018-03-21T23:38:10.097Z,10.70
2018-03-21T23:40:38.369Z,10.70
2018-03-21T23:43:06.653Z,11.90
2018-03-21T23:45:34.973Z,11.97
2018-03-21T23:48:03.256Z,11.40
2018-03-21T23:50:32.294Z,13.20
2018-03-21T23:53:00.589Z,12.20
2018-03-21T23:55:28.850Z,12.90
2018-03-21T23:57:57.138Z,11.15
